Aldar, Mongolia
Current Conditions -  °F | °C
As of 11:30 PM on Wednesday 22 Oct 2014 (Local Time) from UIII Reporting Station
Overcast Overcast  
Wind Chill: 34°   Ceiling: 1900
Heat Index: 34°   Visibility: 6mi
Dew Point: 30°   Wind: 2mph
Humidity: 87%   Direction: 20°NNE
Pressure: 30"   Gusts: NA
Location:  47.7°N, 96.6°E
Report Text: UIII 221530Z 02001MPS 9999 OVC019 01/M01 Q1016 NOSIG RMKQFE717/0956 30190055
Loading
Personal Weather Stations






























Interactive Weather Map
Tropical Storm Tracking
New forecast layout! Learn more

10-Day Weather Forecast

Advertisements
Track Severe Weather on mobile